sensor_id;sensor_type;location;lat;lon;timestamp;pressure;altitude;pressure_sealevel;temperature;humidity
39793;BME280;26080;42.264;24.536;2023-03-15T00:01:31;98487.25;;;0.94;100.00
39793;BME280;26080;42.264;24.536;2023-03-15T00:03:56;98490.00;;;0.86;100.00
39793;BME280;26080;42.264;24.536;2023-03-15T00:06:22;98505.25;;;0.96;100.00
39793;BME280;26080;42.264;24.536;2023-03-15T00:08:47;98498.63;;;0.85;100.00
39793;BME280;26080;42.264;24.536;2023-03-15T00:11:15;98499.75;;;0.72;100.00
39793;BME280;26080;42.264;24.536;2023-03-15T00:13:40;98493.41;;;0.47;100.00
39793;BME280;26080;42.264;24.536;2023-03-15T00:16:06;98470.91;;;0.10;100.00
39793;BME280;26080;42.264;24.536;2023-03-15T00:18:32;98494.88;;;0.15;100.00
39793;BME280;26080;42.264;24.536;2023-03-15T00:20:58;98488.13;;;0.08;100.00
39793;BME280;26080;42.264;24.536;2023-03-15T00:23:23;98455.06;;;-0.13;100.00
39793;BME280;26080;42.264;24.536;2023-03-15T00:25:50;98480.56;;;0.01;100.00
39793;BME280;26080;42.264;24.536;2023-03-15T00:28:16;98445.53;;;-0.10;100.00
39793;BME280;26080;42.264;24.536;2023-03-15T00:30:42;98481.91;;;0.20;100.00
39793;BME280;26080;42.264;24.536;2023-03-15T00:33:10;98479.44;;;0.12;100.00
39793;BME280;26080;42.264;24.536;2023-03-15T00:35:39;98487.06;;;0.18;100.00
39793;BME280;26080;42.264;24.536;2023-03-15T00:38:05;98459.03;;;0.03;100.00
39793;BME280;26080;42.264;24.536;2023-03-15T00:40:31;98483.75;;;0.12;100.00
39793;BME280;26080;42.264;24.536;2023-03-15T00:42:56;98440.31;;;-0.05;100.00
39793;BME280;26080;42.264;24.536;2023-03-15T00:45:22;98450.38;;;0.07;100.00
39793;BME280;26080;42.264;24.536;2023-03-15T00:47:49;98465.47;;;0.25;100.00
39793;BME280;26080;42.264;24.536;2023-03-15T00:50:15;98471.44;;;0.29;100.00
39793;BME280;26080;42.264;24.536;2023-03-15T00:52:40;98476.34;;;0.40;100.00
39793;BME280;26080;42.264;24.536;2023-03-15T00:55:10;98474.75;;;0.34;100.00
39793;BME280;26080;42.264;24.536;2023-03-15T00:57:38;98467.25;;;0.22;100.00
39793;BME280;26080;42.264;24.536;2023-03-15T01:00:08;98463.84;;;0.21;100.00
39793;BME280;26080;42.264;24.536;2023-03-15T01:02:34;98464.69;;;0.22;100.00
39793;BME280;26080;42.264;24.536;2023-03-15T01:05:01;98457.16;;;0.11;100.00
39793;BME280;26080;42.264;24.536;2023-03-15T01:07:27;98448.28;;;0.27;100.00
39793;BME280;26080;42.264;24.536;2023-03-15T01:09:52;98455.72;;;0.43;100.00
39793;BME280;26080;42.264;24.536;2023-03-15T01:12:17;98448.09;;;0.37;100.00
39793;BME280;26080;42.264;24.536;2023-03-15T01:14:43;98450.09;;;0.22;100.00
39793;BME280;26080;42.264;24.536;2023-03-15T01:17:08;98455.13;;;0.27;100.00
39793;BME280;26080;42.264;24.536;2023-03-15T01:19:34;98448.44;;;0.18;100.00
39793;BME280;26080;42.264;24.536;2023-03-15T01:21:59;98450.38;;;0.07;100.00
39793;BME280;26080;42.264;24.536;2023-03-15T01:24:25;98448.63;;;0.09;100.00
39793;BME280;26080;42.264;24.536;2023-03-15T01:26:50;98447.75;;;0.10;100.00
39793;BME280;26080;42.264;24.536;2023-03-15T01:29:15;98443.47;;;0.09;100.00
39793;BME280;26080;42.264;24.536;2023-03-15T01:31:42;98433.31;;;0.03;100.00
39793;BME280;26080;42.264;24.536;2023-03-15T01:34:08;98432.44;;;0.03;100.00
39793;BME280;26080;42.264;24.536;2023-03-15T01:36:34;98430.91;;;-0.08;100.00
39793;BME280;26080;42.264;24.536;2023-03-15T01:38:59;98431.84;;;-0.10;100.00
39793;BME280;26080;42.264;24.536;2023-03-15T01:41:25;98419.03;;;-0.15;100.00
39793;BME280;26080;42.264;24.536;2023-03-15T01:43:52;98430.88;;;-0.06;100.00
39793;BME280;26080;42.264;24.536;2023-03-15T01:49:16;98435.44;;;-0.20;100.00
39793;BME280;26080;42.264;24.536;2023-03-15T01:52:05;98429.88;;;0.03;100.00
39793;BME280;26080;42.264;24.536;2023-03-15T01:55:11;98421.28;;;0.04;100.00
39793;BME280;26080;42.264;24.536;2023-03-15T01:57:59;98419.41;;;0.10;100.00
39793;BME280;26080;42.264;24.536;2023-03-15T02:00:25;98411.09;;;-0.04;100.00
39793;BME280;26080;42.264;24.536;2023-03-15T02:03:13;98400.38;;;-0.27;100.00
39793;BME280;26080;42.264;24.536;2023-03-15T02:05:45;98418.94;;;-0.09;100.00
39793;BME280;26080;42.264;24.536;2023-03-15T02:08:14;98427.56;;;-0.11;100.00
39793;BME280;26080;42.264;24.536;2023-03-15T02:10:47;98424.94;;;-0.08;100.00
39793;BME280;26080;42.264;24.536;2023-03-15T02:13:16;98400.44;;;-0.31;100.00
39793;BME280;26080;42.264;24.536;2023-03-15T02:15:42;98431.25;;;-0.27;100.00
39793;BME280;26080;42.264;24.536;2023-03-15T02:18:14;98433.75;;;-0.21;100.00
39793;BME280;26080;42.264;24.536;2023-03-15T02:21:11;98431.19;;;-0.23;100.00
39793;BME280;26080;42.264;24.536;2023-03-15T02:23:43;98405.88;;;-0.46;100.00
39793;BME280;26080;42.264;24.536;2023-03-15T02:29:15;98416.59;;;-0.22;100.00
39793;BME280;26080;42.264;24.536;2023-03-15T02:31:41;98415.00;;;-0.30;100.00
39793;BME280;26080;42.264;24.536;2023-03-15T02:34:08;98395.22;;;-0.24;100.00
39793;BME280;26080;42.264;24.536;2023-03-15T02:36:34;98400.56;;;-0.37;100.00
39793;BME280;26080;42.264;24.536;2023-03-15T02:39:00;98385.72;;;-0.72;100.00
39793;BME280;26080;42.264;24.536;2023-03-15T02:41:34;98408.78;;;-0.66;100.00
39793;BME280;26080;42.264;24.536;2023-03-15T02:44:07;98406.13;;;-0.61;100.00
39793;BME280;26080;42.264;24.536;2023-03-15T02:46:34;98397.41;;;-0.51;100.00
39793;BME280;26080;42.264;24.536;2023-03-15T02:49:00;98402.66;;;-0.58;100.00
39793;BME280;26080;42.264;24.536;2023-03-15T02:51:27;98391.72;;;-0.71;100.00
39793;BME280;26080;42.264;24.536;2023-03-15T02:53:53;98396.97;;;-0.77;100.00
39793;BME280;26080;42.264;24.536;2023-03-15T02:56:19;98389.31;;;-0.80;100.00
39793;BME280;26080;42.264;24.536;2023-03-15T02:58:45;98390.16;;;-0.78;100.00
39793;BME280;26080;42.264;24.536;2023-03-15T03:01:15;98392.53;;;-0.69;100.00
39793;BME280;26080;42.264;24.536;2023-03-15T03:03:42;98385.78;;;-0.75;100.00
39793;BME280;26080;42.264;24.536;2023-03-15T03:06:09;98383.09;;;-0.67;100.00
39793;BME280;26080;42.264;24.536;2023-03-15T03:08:35;98384.69;;;-0.60;100.00
39793;BME280;26080;42.264;24.536;2023-03-15T03:11:00;98323.53;;;-0.92;100.00
39793;BME280;26080;42.264;24.536;2023-03-15T03:13:26;98362.63;;;-0.73;100.00
39793;BME280;26080;42.264;24.536;2023-03-15T03:15:51;98382.22;;;-0.66;100.00
39793;BME280;26080;42.264;24.536;2023-03-15T03:18:27;98388.31;;;-0.72;100.00
39793;BME280;26080;42.264;24.536;2023-03-15T03:20:57;98384.97;;;-0.77;100.00
39793;BME280;26080;42.264;24.536;2023-03-15T03:23:24;98380.56;;;-0.70;100.00
39793;BME280;26080;42.264;24.536;2023-03-15T03:25:54;98374.25;;;-0.51;100.00
39793;BME280;26080;42.264;24.536;2023-03-15T03:28:21;98369.56;;;-0.31;100.00
39793;BME280;26080;42.264;24.536;2023-03-15T03:30:48;98372.91;;;-0.24;100.00
39793;BME280;26080;42.264;24.536;2023-03-15T03:33:14;98358.31;;;-0.23;100.00
39793;BME280;26080;42.264;24.536;2023-03-15T03:35:39;98373.66;;;-0.19;100.00
39793;BME280;26080;42.264;24.536;2023-03-15T03:38:06;98353.69;;;-0.08;100.00
39793;BME280;26080;42.264;24.536;2023-03-15T03:40:32;98347.41;;;0.07;100.00
39793;BME280;26080;42.264;24.536;2023-03-15T03:42:57;98352.41;;;0.13;100.00
39793;BME280;26080;42.264;24.536;2023-03-15T03:45:22;98363.13;;;-0.07;100.00
39793;BME280;26080;42.264;24.536;2023-03-15T03:47:48;98370.13;;;-0.13;100.00
39793;BME280;26080;42.264;24.536;2023-03-15T03:50:16;98381.31;;;-0.16;100.00
39793;BME280;26080;42.264;24.536;2023-03-15T03:52:42;98382.97;;;-0.12;100.00
39793;BME280;26080;42.264;24.536;2023-03-15T03:55:09;98393.09;;;-0.04;100.00
39793;BME280;26080;42.264;24.536;2023-03-15T03:57:38;98377.78;;;-0.10;100.00
39793;BME280;26080;42.264;24.536;2023-03-15T04:00:04;98374.16;;;-0.02;100.00
39793;BME280;26080;42.264;24.536;2023-03-15T04:02:29;98375.72;;;0.07;100.00
39793;BME280;26080;42.264;24.536;2023-03-15T04:04:55;98377.28;;;0.16;100.00
39793;BME280;26080;42.264;24.536;2023-03-15T04:07:20;98370.47;;;0.12;100.00
39793;BME280;26080;42.264;24.536;2023-03-15T04:09:48;98328.75;;;-0.04;100.00
39793;BME280;26080;42.264;24.536;2023-03-15T04:12:13;98334.94;;;-0.13;100.00
39793;BME280;26080;42.264;24.536;2023-03-15T04:14:38;98354.50;;;-0.06;100.00
39793;BME280;26080;42.264;24.536;2023-03-15T04:17:04;98356.38;;;0.29;100.00
39793;BME280;26080;42.264;24.536;2023-03-15T04:19:29;98353.56;;;0.40;100.00
39793;BME280;26080;42.264;24.536;2023-03-15T04:21:55;98339.72;;;0.46;100.00
39793;BME280;26080;42.264;24.536;2023-03-15T04:24:21;98340.44;;;0.51;100.00
39793;BME280;26080;42.264;24.536;2023-03-15T04:26:53;98347.97;;;0.60;100.00
39793;BME280;26080;42.264;24.536;2023-03-15T04:29:22;98326.53;;;0.59;100.00
39793;BME280;26080;42.264;24.536;2023-03-15T04:31:47;98340.25;;;0.96;100.00
39793;BME280;26080;42.264;24.536;2023-03-15T04:34:13;98338.50;;;0.98;100.00
39793;BME280;26080;42.264;24.536;2023-03-15T04:36:38;98355.25;;;1.15;100.00
39793;BME280;26080;42.264;24.536;2023-03-15T04:39:04;98349.91;;;1.23;100.00
39793;BME280;26080;42.264;24.536;2023-03-15T04:41:30;98320.00;;;1.16;100.00
39793;BME280;26080;42.264;24.536;2023-03-15T04:43:56;98340.06;;;1.39;100.00
39793;BME280;26080;42.264;24.536;2023-03-15T04:46:22;98314.59;;;1.27;100.00
39793;BME280;26080;42.264;24.536;2023-03-15T04:48:47;98353.84;;;1.38;100.00
39793;BME280;26080;42.264;24.536;2023-03-15T04:51:12;98362.22;;;1.46;100.00
39793;BME280;26080;42.264;24.536;2023-03-15T04:53:38;98349.31;;;1.46;100.00
39793;BME280;26080;42.264;24.536;2023-03-15T04:56:04;98356.38;;;1.72;100.00
39793;BME280;26080;42.264;24.536;2023-03-15T04:58:30;98353.63;;;1.78;100.00
39793;BME280;26080;42.264;24.536;2023-03-15T05:00:56;98353.28;;;1.90;100.00
39793;BME280;26080;42.264;24.536;2023-03-15T05:03:21;98341.22;;;1.92;100.00
39793;BME280;26080;42.264;24.536;2023-03-15T05:05:47;98343.47;;;2.03;100.00
39793;BME280;26080;42.264;24.536;2023-03-15T05:08:12;98319.13;;;1.82;100.00
39793;BME280;26080;42.264;24.536;2023-03-15T05:10:38;98357.22;;;2.03;100.00
39793;BME280;26080;42.264;24.536;2023-03-15T05:13:03;98312.25;;;1.81;100.00
39793;BME280;26080;42.264;24.536;2023-03-15T05:15:29;98325.34;;;2.04;100.00
39793;BME280;26080;42.264;24.536;2023-03-15T05:17:54;98355.00;;;2.22;100.00
39793;BME280;26080;42.264;24.536;2023-03-15T05:20:20;98364.38;;;2.25;100.00
39793;BME280;26080;42.264;24.536;2023-03-15T05:22:46;98366.88;;;2.28;100.00
39793;BME280;26080;42.264;24.536;2023-03-15T05:25:12;98359.19;;;2.26;100.00
39793;BME280;26080;42.264;24.536;2023-03-15T05:27:39;98357.97;;;2.38;100.00
39793;BME280;26080;42.264;24.536;2023-03-15T05:30:06;98324.19;;;2.15;100.00
39793;BME280;26080;42.264;24.536;2023-03-15T05:32:32;98352.00;;;2.36;100.00
39793;BME280;26080;42.264;24.536;2023-03-15T05:35:04;98350.22;;;2.38;100.00
39793;BME280;26080;42.264;24.536;2023-03-15T05:37:30;98296.38;;;2.24;100.00
39793;BME280;26080;42.264;24.536;2023-03-15T05:39:57;98307.13;;;2.38;100.00
39793;BME280;26080;42.264;24.536;2023-03-15T05:42:23;98307.19;;;2.37;100.00
39793;BME280;26080;42.264;24.536;2023-03-15T05:44:52;98349.34;;;2.67;100.00
39793;BME280;26080;42.264;24.536;2023-03-15T05:47:17;98358.78;;;2.68;100.00
39793;BME280;26080;42.264;24.536;2023-03-15T05:49:43;98331.81;;;2.77;100.00
39793;BME280;26080;42.264;24.536;2023-03-15T05:52:09;98339.38;;;3.09;100.00
39793;BME280;26080;42.264;24.536;2023-03-15T05:54:34;98343.81;;;3.32;100.00
39793;BME280;26080;42.264;24.536;2023-03-15T05:56:59;98338.06;;;3.49;100.00
39793;BME280;26080;42.264;24.536;2023-03-15T05:59:25;98312.84;;;3.54;100.00
39793;BME280;26080;42.264;24.536;2023-03-15T06:01:50;98297.06;;;3.62;100.00
39793;BME280;26080;42.264;24.536;2023-03-15T06:04:16;98330.53;;;3.91;100.00
39793;BME280;26080;42.264;24.536;2023-03-15T06:06:41;98334.38;;;4.04;100.00
39793;BME280;26080;42.264;24.536;2023-03-15T06:09:07;98329.13;;;4.06;100.00
39793;BME280;26080;42.264;24.536;2023-03-15T06:11:32;98334.84;;;4.15;100.00
39793;BME280;26080;42.264;24.536;2023-03-15T06:13:58;98327.72;;;4.21;100.00
39793;BME280;26080;42.264;24.536;2023-03-15T06:16:23;98343.53;;;4.36;100.00
39793;BME280;26080;42.264;24.536;2023-03-15T06:18:49;98331.69;;;4.31;100.00
39793;BME280;26080;42.264;24.536;2023-03-15T06:21:15;98329.69;;;4.37;100.00
39793;BME280;26080;42.264;24.536;2023-03-15T06:23:40;98343.47;;;4.61;100.00
39793;BME280;26080;42.264;24.536;2023-03-15T06:26:05;98339.81;;;4.67;100.00
39793;BME280;26080;42.264;24.536;2023-03-15T06:28:31;98309.94;;;4.57;100.00
39793;BME280;26080;42.264;24.536;2023-03-15T06:30:57;98332.56;;;4.75;100.00
39793;BME280;26080;42.264;24.536;2023-03-15T06:33:22;98266.34;;;4.44;100.00
39793;BME280;26080;42.264;24.536;2023-03-15T06:35:48;98324.66;;;4.78;100.00
39793;BME280;26080;42.264;24.536;2023-03-15T06:38:14;98328.94;;;4.79;100.00
39793;BME280;26080;42.264;24.536;2023-03-15T06:40:39;98332.91;;;4.66;100.00
39793;BME280;26080;42.264;24.536;2023-03-15T06:43:05;98349.50;;;4.62;100.00
39793;BME280;26080;42.264;24.536;2023-03-15T06:45:31;98334.84;;;4.61;100.00
39793;BME280;26080;42.264;24.536;2023-03-15T06:47:57;98341.69;;;4.85;100.00
39793;BME280;26080;42.264;24.536;2023-03-15T06:50:22;98330.81;;;4.97;100.00
39793;BME280;26080;42.264;24.536;2023-03-15T06:52:48;98340.34;;;4.97;100.00
39793;BME280;26080;42.264;24.536;2023-03-15T06:55:13;98341.84;;;5.02;100.00
39793;BME280;26080;42.264;24.536;2023-03-15T06:57:45;98340.56;;;5.13;100.00
39793;BME280;26080;42.264;24.536;2023-03-15T07:00:11;98335.53;;;5.30;100.00
39793;BME280;26080;42.264;24.536;2023-03-15T07:02:36;98341.97;;;5.42;100.00
39793;BME280;26080;42.264;24.536;2023-03-15T07:05:03;98339.19;;;5.46;100.00
39793;BME280;26080;42.264;24.536;2023-03-15T07:07:29;98338.34;;;5.66;100.00
39793;BME280;26080;42.264;24.536;2023-03-15T07:09:54;98332.34;;;5.84;100.00
39793;BME280;26080;42.264;24.536;2023-03-15T07:12:20;98330.53;;;6.07;100.00
39793;BME280;26080;42.264;24.536;2023-03-15T07:14:45;98334.22;;;6.21;100.00
39793;BME280;26080;42.264;24.536;2023-03-15T07:17:14;98328.59;;;6.31;100.00
39793;BME280;26080;42.264;24.536;2023-03-15T07:19:40;98337.38;;;6.47;100.00
39793;BME280;26080;42.264;24.536;2023-03-15T07:22:05;98326.47;;;6.58;100.00
39793;BME280;26080;42.264;24.536;2023-03-15T07:24:31;98328.72;;;6.65;100.00
39793;BME280;26080;42.264;24.536;2023-03-15T07:26:56;98324.00;;;6.54;100.00
39793;BME280;26080;42.264;24.536;2023-03-15T07:29:23;98320.28;;;6.60;100.00
39793;BME280;26080;42.264;24.536;2023-03-15T07:31:49;98321.69;;;6.67;100.00
39793;BME280;26080;42.264;24.536;2023-03-15T07:34:14;98318.38;;;6.64;100.00
39793;BME280;26080;42.264;24.536;2023-03-15T07:36:40;98294.09;;;6.82;100.00
39793;BME280;26080;42.264;24.536;2023-03-15T07:39:05;98288.38;;;6.93;100.00
39793;BME280;26080;42.264;24.536;2023-03-15T07:41:31;98314.91;;;7.18;100.00
39793;BME280;26080;42.264;24.536;2023-03-15T07:43:56;98303.41;;;7.22;100.00
39793;BME280;26080;42.264;24.536;2023-03-15T07:46:22;98291.91;;;7.26;100.00
39793;BME280;26080;42.264;24.536;2023-03-15T07:48:47;98290.38;;;7.39;98.69
39793;BME280;26080;42.264;24.536;2023-03-15T07:51:13;98304.41;;;7.54;98.51
39793;BME280;26080;42.264;24.536;2023-03-15T07:53:38;98298.56;;;7.66;100.00
39793;BME280;26080;42.264;24.536;2023-03-15T07:56:04;98303.84;;;7.82;98.02
39793;BME280;26080;42.264;24.536;2023-03-15T07:58:30;98298.13;;;7.91;95.83
39793;BME280;26080;42.264;24.536;2023-03-15T08:00:56;98312.28;;;8.03;96.68
39793;BME280;26080;42.264;24.536;2023-03-15T08:03:22;98308.38;;;7.94;97.66
39793;BME280;26080;42.264;24.536;2023-03-15T08:05:49;98291.19;;;8.08;98.33
39793;BME280;26080;42.264;24.536;2023-03-15T08:08:15;98267.75;;;8.23;93.50
39793;BME280;26080;42.264;24.536;2023-03-15T08:10:40;98240.88;;;8.21;91.09
39793;BME280;26080;42.264;24.536;2023-03-15T08:13:07;98259.09;;;8.23;91.24
39793;BME280;26080;42.264;24.536;2023-03-15T08:15:32;98271.88;;;8.27;91.40
39793;BME280;26080;42.264;24.536;2023-03-15T08:17:58;98240.47;;;7.97;91.30
39793;BME280;26080;42.264;24.536;2023-03-15T08:20:24;98214.84;;;7.39;93.83
39793;BME280;26080;42.264;24.536;2023-03-15T08:22:49;98256.06;;;7.49;96.32
39793;BME280;26080;42.264;24.536;2023-03-15T08:25:21;98240.28;;;7.34;95.35
39793;BME280;26080;42.264;24.536;2023-03-15T08:27:48;98235.38;;;7.46;96.25
39793;BME280;26080;42.264;24.536;2023-03-15T08:30:15;98235.16;;;7.66;95.10
39793;BME280;26080;42.264;24.536;2023-03-15T08:32:43;98247.75;;;7.91;95.76
39793;BME280;26080;42.264;24.536;2023-03-15T08:35:10;98228.75;;;7.89;96.14
39793;BME280;26080;42.264;24.536;2023-03-15T08:37:37;98247.03;;;8.20;94.17
39793;BME280;26080;42.264;24.536;2023-03-15T08:40:03;98226.16;;;8.20;90.64
39793;BME280;26080;42.264;24.536;2023-03-15T08:42:38;98239.75;;;8.43;90.76
39793;BME280;26080;42.264;24.536;2023-03-15T08:45:05;98233.59;;;8.28;91.87
39793;BME280;26080;42.264;24.536;2023-03-15T08:47:32;98234.41;;;8.28;91.27
39793;BME280;26080;42.264;24.536;2023-03-15T08:50:00;98205.84;;;8.43;89.95
39793;BME280;26080;42.264;24.536;2023-03-15T08:52:26;98223.81;;;8.63;91.20
39793;BME280;26080;42.264;24.536;2023-03-15T08:54:51;98225.91;;;8.72;91.55
39793;BME280;26080;42.264;24.536;2023-03-15T08:57:17;98220.66;;;8.88;87.78
39793;BME280;26080;42.264;24.536;2023-03-15T08:59:42;98225.50;;;8.80;89.47
39793;BME280;26080;42.264;24.536;2023-03-15T09:02:09;98202.31;;;8.74;87.17
39793;BME280;26080;42.264;24.536;2023-03-15T09:04:36;98218.03;;;8.88;86.60
39793;BME280;26080;42.264;24.536;2023-03-15T09:07:01;98226.09;;;8.99;83.51
39793;BME280;26080;42.264;24.536;2023-03-15T09:09:27;98221.25;;;8.93;85.80
39793;BME280;26080;42.264;24.536;2023-03-15T09:11:52;98229.97;;;9.08;86.00
39793;BME280;26080;42.264;24.536;2023-03-15T09:14:17;98204.59;;;9.10;84.02
39793;BME280;26080;42.264;24.536;2023-03-15T09:16:43;98204.31;;;9.14;81.69
39793;BME280;26080;42.264;24.536;2023-03-15T09:19:08;98199.81;;;9.16;82.28
39793;BME280;26080;42.264;24.536;2023-03-15T09:21:34;98207.66;;;9.16;83.04
39793;BME280;26080;42.264;24.536;2023-03-15T09:23:59;98172.97;;;9.14;82.87
39793;BME280;26080;42.264;24.536;2023-03-15T09:26:24;98198.16;;;9.30;81.72
39793;BME280;26080;42.264;24.536;2023-03-15T09:28:50;98184.56;;;9.39;80.75
39793;BME280;26080;42.264;24.536;2023-03-15T09:31:15;98201.94;;;9.40;79.45
39793;BME280;26080;42.264;24.536;2023-03-15T09:33:41;98166.66;;;9.18;79.57
39793;BME280;26080;42.264;24.536;2023-03-15T09:36:10;98214.16;;;9.54;81.00
39793;BME280;26080;42.264;24.536;2023-03-15T09:38:36;98218.19;;;9.88;78.95
39793;BME280;26080;42.264;24.536;2023-03-15T09:41:01;98207.31;;;10.08;79.74
39793;BME280;26080;42.264;24.536;2023-03-15T09:46:26;98182.53;;;10.42;76.44
39793;BME280;26080;42.264;24.536;2023-03-15T09:54:17;98166.72;;;10.44;79.03
39793;BME280;26080;42.264;24.536;2023-03-15T09:57:10;98164.03;;;10.58;74.91
39793;BME280;26080;42.264;24.536;2023-03-15T09:59:47;98167.59;;;10.57;73.86
39793;BME280;26080;42.264;24.536;2023-03-15T10:05:48;98181.44;;;10.59;70.74
39793;BME280;26080;42.264;24.536;2023-03-15T10:08:25;98178.81;;;10.59;74.98
39793;BME280;26080;42.264;24.536;2023-03-15T10:11:07;98178.13;;;10.70;70.64
39793;BME280;26080;42.264;24.536;2023-03-15T10:26:58;98151.78;;;11.11;73.07
39793;BME280;26080;42.264;24.536;2023-03-15T10:29:30;98147.16;;;11.02;74.28
39793;BME280;26080;42.264;24.536;2023-03-15T10:32:00;98145.59;;;11.12;72.67
39793;BME280;26080;42.264;24.536;2023-03-15T10:34:25;98142.34;;;11.46;68.66
39793;BME280;26080;42.264;24.536;2023-03-15T10:36:53;98109.81;;;11.49;66.26
39793;BME280;26080;42.264;24.536;2023-03-15T10:39:21;98126.25;;;11.64;66.37
39793;BME280;26080;42.264;24.536;2023-03-15T10:41:48;98131.00;;;11.58;68.25
39793;BME280;26080;42.264;24.536;2023-03-15T10:44:24;98110.66;;;11.49;68.19
39793;BME280;26080;42.264;24.536;2023-03-15T10:47:12;98132.88;;;11.82;69.79
39793;BME280;26080;42.264;24.536;2023-03-15T10:49:42;98133.50;;;11.85;68.04
39793;BME280;26080;42.264;24.536;2023-03-15T10:52:44;98127.34;;;12.10;69.39
39793;BME280;26080;42.264;24.536;2023-03-15T10:55:13;98125.19;;;11.92;64.20
39793;BME280;26080;42.264;24.536;2023-03-15T10:57:50;98112.31;;;11.63;64.54
39793;BME280;26080;42.264;24.536;2023-03-15T11:00:30;98113.47;;;11.59;67.65
39793;BME280;26080;42.264;24.536;2023-03-15T11:03:25;98119.56;;;11.47;67.07
39793;BME280;26080;42.264;24.536;2023-03-15T11:05:53;98101.84;;;11.50;65.31
39793;BME280;26080;42.264;24.536;2023-03-15T11:08:22;98103.94;;;11.58;63.92
39793;BME280;26080;42.264;24.536;2023-03-15T11:10:58;98088.44;;;11.42;63.78
39793;BME280;26080;42.264;24.536;2023-03-15T11:13:26;98112.44;;;11.49;66.27
39793;BME280;26080;42.264;24.536;2023-03-15T11:16:20;98105.00;;;11.55;65.06
39793;BME280;26080;42.264;24.536;2023-03-15T11:21:25;98097.47;;;12.00;64.99
39793;BME280;26080;42.264;24.536;2023-03-15T11:23:53;98098.56;;;12.33;63.51
39793;BME280;26080;42.264;24.536;2023-03-15T11:26:22;98095.50;;;12.39;62.52
39793;BME280;26080;42.264;24.536;2023-03-15T11:28:55;98089.59;;;12.00;65.57
39793;BME280;26080;42.264;24.536;2023-03-15T11:31:25;98093.50;;;12.19;64.29
39793;BME280;26080;42.264;24.536;2023-03-15T11:33:55;98092.09;;;12.26;66.52
39793;BME280;26080;42.264;24.536;2023-03-15T11:36:25;98093.13;;;12.36;66.27
39793;BME280;26080;42.264;24.536;2023-03-15T11:38:51;98087.63;;;12.39;62.75
39793;BME280;26080;42.264;24.536;2023-03-15T11:46:45;98094.28;;;12.32;64.41
39793;BME280;26080;42.264;24.536;2023-03-15T11:49:39;98086.69;;;12.40;63.45
39793;BME280;26080;42.264;24.536;2023-03-15T11:52:07;98035.06;;;12.28;61.73
39793;BME280;26080;42.264;24.536;2023-03-15T11:54:32;98048.63;;;12.45;61.37
39793;BME280;26080;42.264;24.536;2023-03-15T11:57:02;98069.66;;;12.57;62.17
39793;BME280;26080;42.264;24.536;2023-03-15T11:59:37;98069.28;;;12.50;64.96
39793;BME280;26080;42.264;24.536;2023-03-15T12:07:05;98048.69;;;12.33;63.52
39793;BME280;26080;42.264;24.536;2023-03-15T12:09:38;98051.16;;;12.58;60.64
39793;BME280;26080;42.264;24.536;2023-03-15T12:22:51;98038.22;;;12.44;60.93
39793;BME280;26080;42.264;24.536;2023-03-15T12:25:36;98045.66;;;12.50;61.77
39793;BME280;26080;42.264;24.536;2023-03-15T12:28:16;98039.72;;;12.70;61.43
39793;BME280;26080;42.264;24.536;2023-03-15T12:30:44;98037.59;;;12.87;62.20
39793;BME280;26080;42.264;24.536;2023-03-15T12:33:15;98038.47;;;12.98;58.96
39793;BME280;26080;42.264;24.536;2023-03-15T12:35:41;98005.38;;;13.07;57.42
39793;BME280;26080;42.264;24.536;2023-03-15T12:38:14;98029.75;;;12.98;59.45
39793;BME280;26080;42.264;24.536;2023-03-15T12:40:54;98027.75;;;12.55;59.11
39793;BME280;26080;42.264;24.536;2023-03-15T12:43:41;98030.41;;;12.20;60.19
39793;BME280;26080;42.264;24.536;2023-03-15T12:54:23;98016.28;;;11.49;62.63
39793;BME280;26080;42.264;24.536;2023-03-15T12:57:00;98027.97;;;11.20;64.61
39793;BME280;26080;42.264;24.536;2023-03-15T12:59:42;98029.78;;;11.07;63.73
39793;BME280;26080;42.264;24.536;2023-03-15T13:02:44;98028.84;;;10.95;66.67
39793;BME280;26080;42.264;24.536;2023-03-15T13:05:30;98025.72;;;10.90;65.55
39793;BME280;26080;42.264;24.536;2023-03-15T13:08:08;98022.03;;;10.92;64.92
39793;BME280;26080;42.264;24.536;2023-03-15T13:18:32;98008.63;;;11.46;61.44
39793;BME280;26080;42.264;24.536;2023-03-15T13:23:34;98022.69;;;11.45;62.75
39793;BME280;26080;42.264;24.536;2023-03-15T13:28:35;98003.16;;;11.49;61.23
39793;BME280;26080;42.264;24.536;2023-03-15T13:31:16;97991.56;;;11.65;61.18
39793;BME280;26080;42.264;24.536;2023-03-15T13:33:51;97982.03;;;11.64;61.79
39793;BME280;26080;42.264;24.536;2023-03-15T13:39:18;97960.09;;;11.65;60.13
39793;BME280;26080;42.264;24.536;2023-03-15T13:41:45;97985.75;;;11.85;59.71
39793;BME280;26080;42.264;24.536;2023-03-15T13:44:33;97981.94;;;11.89;59.56
39793;BME280;26080;42.264;24.536;2023-03-15T13:47:05;97984.22;;;11.70;60.54
39793;BME280;26080;42.264;24.536;2023-03-15T13:49:32;97983.66;;;11.77;60.26
39793;BME280;26080;42.264;24.536;2023-03-15T13:52:02;97993.59;;;11.61;62.33
39793;BME280;26080;42.264;24.536;2023-03-15T13:54:32;97988.78;;;11.55;61.27
39793;BME280;26080;42.264;24.536;2023-03-15T13:57:11;97979.69;;;11.72;59.14
39793;BME280;26080;42.264;24.536;2023-03-15T13:59:46;97975.72;;;11.79;61.21
39793;BME280;26080;42.264;24.536;2023-03-15T14:05:11;97953.41;;;11.61;64.24
39793;BME280;26080;42.264;24.536;2023-03-15T14:07:40;97971.91;;;11.83;64.53
39793;BME280;26080;42.264;24.536;2023-03-15T14:10:25;97965.66;;;11.97;60.57
39793;BME280;26080;42.264;24.536;2023-03-15T14:12:52;97944.00;;;12.17;60.59
39793;BME280;26080;42.264;24.536;2023-03-15T14:15:36;97959.31;;;12.23;60.74
39793;BME280;26080;42.264;24.536;2023-03-15T14:20:43;97967.06;;;12.25;59.88
39793;BME280;26080;42.264;24.536;2023-03-15T14:23:12;97963.41;;;12.03;60.76